Time;durP1;ratioP1;P1;durP2;ratioP2;P2;SDS_P1;SDS_P2;PMS_P1;PMS_P2;Temp;Humidity;BMP_temperature;BMP_pressure;BME280_temperature;BME280_humidity;BME280_pressure;Samples;Min_cycle;Max_cycle;Signal;HPM_P1;HPM_P2
2022/03/31 00:00:10;;;;;;;15.63;9.30;;;11.00;99.90;;;;;;7394530;19;20134;-79
2022/03/31 00:02:36;;;;;;;13.60;9.33;;;11.00;99.90;;;;;;7395548;19;20137;-78
2022/03/31 00:05:02;;;;;;;14.60;9.27;;;11.00;99.90;;;;;;7386945;19;20147;-78
2022/03/31 00:07:28;;;;;;;15.47;9.47;;;10.80;99.90;;;;;;7387172;19;20138;-78
2022/03/31 00:09:53;;;;;;;13.07;8.77;;;11.00;99.90;;;;;;7387064;19;20906;-79
2022/03/31 00:12:19;;;;;;;14.97;9.27;;;11.00;99.90;;;;;;7391275;19;20166;-78
2022/03/31 00:14:45;;;;;;;14.17;9.47;;;10.90;99.90;;;;;;7387368;19;20519;-79
2022/03/31 00:17:11;;;;;;;16.77;9.87;;;10.90;99.90;;;;;;7386820;19;20130;-79
2022/03/31 00:19:37;;;;;;;13.30;8.80;;;11.00;99.90;;;;;;7386543;19;20134;-79
2022/03/31 00:22:03;;;;;;;14.73;9.33;;;11.10;99.90;;;;;;7387625;19;20135;-78
2022/03/31 00:24:30;;;;;;;16.23;9.80;;;10.90;99.90;;;;;;7395463;19;20590;-80
2022/03/31 00:26:55;;;;;;;13.50;9.37;;;10.80;99.90;;;;;;7387570;19;20178;-79
2022/03/31 00:29:22;;;;;;;12.40;8.60;;;10.80;99.90;;;;;;7385477;19;20181;-79
2022/03/31 00:31:48;;;;;;;11.57;8.40;;;10.80;99.90;;;;;;7386386;19;20138;-79
2022/03/31 00:34:14;;;;;;;12.73;8.50;;;11.00;99.90;;;;;;7384531;19;20190;-79
2022/03/31 00:36:40;;;;;;;11.13;7.67;;;11.10;99.90;;;;;;7386195;19;20166;-80
2022/03/31 00:41:50;;;;;;;11.43;7.83;;;11.10;99.90;;;;;;7390311;19;20151;-79
2022/03/31 00:44:18;;;;;;;13.23;8.77;;;11.10;99.90;;;;;;7390330;19;20602;-81
2022/03/31 00:46:51;;;;;;;13.27;8.43;;;11.10;99.90;;;;;;7399417;19;20150;-80
2022/03/31 00:49:22;;;;;;;10.20;7.83;;;11.10;99.90;;;;;;7385974;19;20486;-80
2022/03/31 00:51:49;;;;;;;12.63;8.20;;;11.00;99.90;;;;;;7386316;19;20122;-80
2022/03/31 00:54:19;;;;;;;12.73;7.67;;;11.00;99.90;;;;;;7388532;19;20529;-79
2022/03/31 00:56:49;;;;;;;12.23;7.70;;;11.00;99.90;;;;;;7384581;19;20162;-78
2022/03/31 00:59:15;;;;;;;9.70;7.10;;;11.10;99.90;;;;;;7387126;19;20603;-78
2022/03/31 01:01:44;;;;;;;11.20;6.93;;;11.00;99.90;;;;;;7383324;19;20127;-79
2022/03/31 01:04:11;;;;;;;10.50;7.63;;;11.00;99.90;;;;;;7387899;19;20140;-79
2022/03/31 01:06:38;;;;;;;10.97;7.40;;;11.00;99.90;;;;;;7386194;19;20843;-78
2022/03/31 01:09:04;;;;;;;10.30;7.17;;;11.10;99.90;;;;;;7385376;19;20139;-78
2022/03/31 01:11:31;;;;;;;11.00;7.13;;;11.10;99.90;;;;;;7388195;19;20130;-78
2022/03/31 01:13:58;;;;;;;11.10;7.40;;;11.00;99.90;;;;;;7385507;19;20508;-76
2022/03/31 01:16:24;;;;;;;9.43;6.67;;;10.90;99.90;;;;;;7387423;19;20223;-78
2022/03/31 01:18:53;;;;;;;10.57;6.77;;;10.90;99.90;;;;;;7387429;19;20134;-79
2022/03/31 01:21:19;;;;;;;12.73;7.60;;;11.00;99.90;;;;;;7384106;19;20487;-80
2022/03/31 01:23:45;;;;;;;11.13;7.40;;;10.90;99.90;;;;;;7406584;19;20131;-79
2022/03/31 01:26:12;;;;;;;10.60;7.13;;;10.90;99.90;;;;;;7392181;19;20147;-80
2022/03/31 01:28:41;;;;;;;11.30;7.30;;;10.90;99.90;;;;;;7386571;19;20139;-79
2022/03/31 01:31:07;;;;;;;9.83;6.70;;;11.00;99.90;;;;;;7386590;19;20131;-79
2022/03/31 01:33:33;;;;;;;10.90;7.30;;;10.90;99.90;;;;;;7385240;19;20215;-79
2022/03/31 01:36:01;;;;;;;10.57;7.50;;;11.00;99.90;;;;;;7385092;19;20601;-79
2022/03/31 01:38:27;;;;;;;11.37;6.50;;;11.00;99.90;;;;;;7384902;19;20154;-78
2022/03/31 01:40:53;;;;;;;10.20;6.37;;;10.90;99.90;;;;;;7382804;19;20234;-78
2022/03/31 01:43:20;;;;;;;11.50;6.80;;;10.80;99.90;;;;;;7383496;19;20134;-78
2022/03/31 01:45:49;;;;;;;9.23;6.63;;;10.90;99.90;;;;;;7395776;19;20119;-80
2022/03/31 01:48:16;;;;;;;9.17;6.43;;;10.80;99.90;;;;;;7396675;19;20131;-80
2022/03/31 01:50:42;;;;;;;11.37;7.40;;;10.80;99.90;;;;;;7390693;19;20454;-80
2022/03/31 01:53:09;;;;;;;9.73;6.97;;;10.70;99.90;;;;;;7392758;19;20135;-80
2022/03/31 01:55:35;;;;;;;11.37;7.53;;;10.80;99.90;;;;;;7391327;19;20171;-78
2022/03/31 01:58:02;;;;;;;9.73;7.00;;;10.70;99.90;;;;;;7389417;19;20170;-80
2022/03/31 02:00:27;;;;;;;9.87;6.57;;;10.80;99.90;;;;;;7391891;19;20134;-79
2022/03/31 02:02:53;;;;;;;11.17;7.40;;;10.70;99.90;;;;;;7396535;19;20147;-78
2022/03/31 02:05:20;;;;;;;10.77;6.67;;;10.70;99.90;;;;;;7400063;19;20176;-79
2022/03/31 02:07:46;;;;;;;10.20;7.27;;;10.70;99.90;;;;;;7394106;19;20536;-78
2022/03/31 02:10:13;;;;;;;9.40;6.30;;;10.60;99.90;;;;;;7390459;19;20134;-80
2022/03/31 02:12:40;;;;;;;11.33;6.90;;;10.70;99.90;;;;;;7394635;19;20154;-80
2022/03/31 02:15:06;;;;;;;8.50;6.20;;;10.70;99.90;;;;;;7388607;19;20543;-81
2022/03/31 02:17:32;;;;;;;9.70;6.80;;;10.70;99.90;;;;;;7390827;19;20186;-81
2022/03/31 02:19:58;;;;;;;12.70;7.60;;;10.60;99.90;;;;;;7390425;19;20147;-78
2022/03/31 02:22:25;;;;;;;9.03;6.50;;;10.60;99.90;;;;;;7391147;19;20122;-78
2022/03/31 02:24:51;;;;;;;10.90;6.83;;;10.50;99.90;;;;;;7392184;19;20493;-78
2022/03/31 02:27:17;;;;;;;9.80;6.97;;;10.60;99.90;;;;;;7392743;19;20127;-80
2022/03/31 02:29:42;;;;;;;9.40;6.37;;;10.50;99.90;;;;;;7387981;19;20189;-78
2022/03/31 02:32:09;;;;;;;10.47;6.37;;;10.50;99.90;;;;;;7389614;19;20150;-79
2022/03/31 02:34:35;;;;;;;10.27;6.63;;;10.50;99.90;;;;;;7389300;19;20147;-78
2022/03/31 02:37:02;;;;;;;10.13;7.13;;;10.50;99.90;;;;;;7388905;19;20492;-78
2022/03/31 02:39:30;;;;;;;11.67;7.43;;;10.50;99.90;;;;;;7390706;19;20150;-78
2022/03/31 02:41:57;;;;;;;11.40;7.73;;;10.40;99.90;;;;;;7390026;19;20139;-79
2022/03/31 02:44:24;;;;;;;12.03;8.40;;;10.50;99.90;;;;;;7389377;19;20141;-78
2022/03/31 02:46:51;;;;;;;11.70;7.77;;;10.40;99.90;;;;;;7387192;19;20127;-78
2022/03/31 02:49:17;;;;;;;11.07;7.97;;;10.30;99.90;;;;;;7392037;19;20529;-79
2022/03/31 02:51:43;;;;;;;10.33;7.33;;;10.20;99.90;;;;;;7396720;19;20573;-78
2022/03/31 02:56:54;;;;;;;13.20;7.63;;;10.20;99.90;;;;;;7387018;19;20486;-77
2022/03/31 02:59:20;;;;;;;11.80;8.00;;;10.10;99.90;;;;;;7389045;19;20162;-78
2022/03/31 03:01:46;;;;;;;11.70;8.13;;;10.10;99.90;;;;;;7392815;19;20186;-79
2022/03/31 03:04:13;;;;;;;11.33;8.43;;;10.10;99.90;;;;;;7390562;19;20222;-78
2022/03/31 03:06:39;;;;;;;10.73;7.83;;;10.10;99.90;;;;;;7387241;19;20222;-78
2022/03/31 03:09:06;;;;;;;11.90;8.50;;;10.00;99.90;;;;;;7392383;19;20586;-79
2022/03/31 03:11:32;;;;;;;13.73;9.13;;;10.00;99.90;;;;;;7396065;19;20123;-79
2022/03/31 03:13:58;;;;;;;12.87;8.60;;;9.90;99.90;;;;;;7394922;19;20168;-79
2022/03/31 03:16:25;;;;;;;12.20;8.73;;;9.90;99.90;;;;;;7388297;19;20141;-79
2022/03/31 03:18:52;;;;;;;13.37;8.37;;;10.00;99.90;;;;;;7388122;19;20149;-78
2022/03/31 03:21:19;;;;;;;12.10;8.40;;;10.00;99.90;;;;;;7385637;19;20481;-78
2022/03/31 03:23:46;;;;;;;9.97;7.57;;;9.80;99.90;;;;;;7387538;19;20155;-78
2022/03/31 03:26:12;;;;;;;12.27;8.30;;;9.70;99.90;;;;;;7386061;19;20181;-79
2022/03/31 03:28:38;;;;;;;12.43;8.80;;;9.70;99.90;;;;;;7385680;19;20161;-78
2022/03/31 03:31:06;;;;;;;11.43;8.50;;;9.80;99.90;;;;;;7390243;19;20190;-80
2022/03/31 03:33:33;;;;;;;11.20;8.37;;;9.80;99.90;;;;;;7393400;19;20145;-78
2022/03/31 03:35:59;;;;;;;10.90;8.13;;;9.80;99.90;;;;;;7390978;19;20552;-79
2022/03/31 03:38:25;;;;;;;10.97;8.37;;;9.80;99.90;;;;;;7389861;19;20609;-78
2022/03/31 03:40:51;;;;;;;11.93;8.67;;;9.80;99.90;;;;;;7387494;19;20123;-78
2022/03/31 03:43:17;;;;;;;12.13;7.67;;;9.90;99.90;;;;;;7389142;19;20127;-78
2022/03/31 03:45:43;;;;;;;11.33;7.63;;;9.90;99.90;;;;;;7390465;19;20142;-77
2022/03/31 03:48:12;;;;;;;11.67;8.33;;;9.80;99.90;;;;;;7385755;19;20162;-77
2022/03/31 03:50:39;;;;;;;11.37;8.27;;;9.80;99.90;;;;;;7387876;19;20127;-78
2022/03/31 03:53:06;;;;;;;12.27;8.57;;;9.80;99.90;;;;;;7387051;19;20154;-78
2022/03/31 03:55:34;;;;;;;13.33;8.23;;;9.80;99.90;;;;;;7388671;19;20155;-78
2022/03/31 03:58:01;;;;;;;13.40;8.83;;;9.80;99.90;;;;;;7389502;19;20148;-78
2022/03/31 04:00:29;;;;;;;13.43;8.73;;;9.70;99.90;;;;;;7385192;19;20157;-78
2022/03/31 04:02:55;;;;;;;12.90;8.80;;;9.70;99.90;;;;;;7386782;19;20137;-79
2022/03/31 04:05:21;;;;;;;11.60;8.00;;;9.70;99.90;;;;;;7385955;19;20436;-79
2022/03/31 04:07:47;;;;;;;10.77;8.10;;;9.80;99.90;;;;;;7387492;19;20130;-79
2022/03/31 04:10:13;;;;;;;11.60;8.17;;;9.80;99.90;;;;;;7386651;19;20155;-79
2022/03/31 04:12:40;;;;;;;9.63;7.67;;;9.90;99.90;;;;;;7387090;19;20166;-79
2022/03/31 04:15:07;;;;;;;11.50;8.60;;;9.70;99.90;;;;;;7387600;19;20150;-79
2022/03/31 04:17:34;;;;;;;11.07;7.77;;;9.70;99.90;;;;;;7393211;19;20138;-78
2022/03/31 04:20:03;;;;;;;11.13;8.83;;;9.70;99.90;;;;;;7393803;19;20145;-77
2022/03/31 04:22:33;;;;;;;11.80;8.80;;;9.70;99.90;;;;;;7388467;19;20134;-78
2022/03/31 04:24:58;;;;;;;12.97;8.83;;;9.50;99.90;;;;;;7386421;19;20166;-78
2022/03/31 04:27:24;;;;;;;11.93;8.30;;;9.50;99.90;;;;;;7383977;19;20134;-79
2022/03/31 04:29:50;;;;;;;13.17;9.40;;;9.60;99.90;;;;;;7384971;19;20146;-79
2022/03/31 04:32:16;;;;;;;11.37;8.60;;;9.50;99.90;;;;;;7386446;19;20137;-79
2022/03/31 04:34:41;;;;;;;12.67;8.93;;;9.50;99.90;;;;;;7387010;19;20462;-79
2022/03/31 04:37:07;;;;;;;12.87;8.87;;;9.40;99.90;;;;;;7384060;19;20174;-80
2022/03/31 04:39:33;;;;;;;11.10;8.53;;;9.50;99.90;;;;;;7398053;19;20174;-78
2022/03/31 04:41:59;;;;;;;11.33;8.47;;;9.50;99.90;;;;;;7385911;19;20156;-78
2022/03/31 04:44:25;;;;;;;12.70;8.23;;;9.50;99.90;;;;;;7386577;19;20130;-78
2022/03/31 04:46:51;;;;;;;10.97;8.23;;;9.40;99.90;;;;;;7388242;19;20914;-79
2022/03/31 04:49:16;;;;;;;12.37;8.57;;;9.30;99.90;;;;;;7387580;19;20134;-79
2022/03/31 04:51:42;;;;;;;13.53;9.13;;;9.30;99.90;;;;;;7388666;19;20130;-78
2022/03/31 04:54:08;;;;;;;13.13;8.83;;;9.20;99.90;;;;;;7385170;19;20545;-79
2022/03/31 04:56:34;;;;;;;12.50;9.00;;;9.30;99.90;;;;;;7386277;19;20130;-78
2022/03/31 04:59:00;;;;;;;11.13;8.63;;;9.30;99.90;;;;;;7400026;19;20130;-79
2022/03/31 05:01:25;;;;;;;10.77;8.13;;;9.40;99.90;;;;;;7388855;19;20131;-79
2022/03/31 05:03:55;;;;;;;12.40;8.67;;;9.30;99.90;;;;;;7388282;19;20198;-82
2022/03/31 05:06:21;;;;;;;11.33;8.27;;;9.30;99.90;;;;;;7389833;19;20580;-78
2022/03/31 05:08:47;;;;;;;11.00;8.00;;;9.30;99.90;;;;;;7391118;19;20477;-79
2022/03/31 05:11:13;;;;;;;12.17;8.40;;;9.50;99.90;;;;;;7390103;19;20134;-77
2022/03/31 05:13:39;;;;;;;13.40;8.23;;;9.40;99.90;;;;;;7385513;19;20127;-78
2022/03/31 05:16:05;;;;;;;12.03;8.27;;;9.30;99.90;;;;;;7387960;19;20150;-77
2022/03/31 05:18:32;;;;;;;12.00;8.73;;;9.20;99.90;;;;;;7394602;19;20154;-79
2022/03/31 05:20:58;;;;;;;12.00;7.60;;;9.30;99.90;;;;;;7386566;19;20138;-79
2022/03/31 05:23:23;;;;;;;10.80;7.93;;;9.30;99.90;;;;;;7397654;19;20151;-78
2022/03/31 05:25:50;;;;;;;10.63;8.03;;;9.30;99.90;;;;;;7395251;19;20514;-78
2022/03/31 05:28:16;;;;;;;13.33;8.63;;;9.30;99.90;;;;;;7395496;19;20151;-79
2022/03/31 05:30:42;;;;;;;10.67;7.73;;;9.40;99.90;;;;;;7396682;19;20572;-81
2022/03/31 05:33:08;;;;;;;11.47;8.07;;;9.40;99.90;;;;;;7395115;19;20457;-80
2022/03/31 05:35:34;;;;;;;12.13;8.07;;;9.30;99.90;;;;;;7396230;19;20178;-81
2022/03/31 05:38:01;;;;;;;9.03;6.90;;;9.30;99.90;;;;;;7397682;19;20159;-79
2022/03/31 05:40:27;;;;;;;12.60;8.03;;;9.30;99.90;;;;;;7396138;19;20214;-81
2022/03/31 05:42:55;;;;;;;11.40;7.87;;;9.20;99.90;;;;;;7396374;19;20142;-81
2022/03/31 05:45:21;;;;;;;12.63;8.67;;;9.20;99.90;;;;;;7397391;19;20532;-80
2022/03/31 05:47:47;;;;;;;10.80;7.87;;;9.00;99.90;;;;;;7394416;19;20542;-80
2022/03/31 05:50:14;;;;;;;10.20;7.63;;;9.10;99.90;;;;;;7394273;19;20141;-81
2022/03/31 05:52:43;;;;;;;11.53;8.50;;;9.10;99.90;;;;;;7392949;19;20142;-80
2022/03/31 05:55:14;;;;;;;12.83;8.90;;;9.10;99.90;;;;;;7392232;19;20146;-80
2022/03/31 05:57:40;;;;;;;10.17;7.73;;;9.20;99.90;;;;;;7396735;19;20174;-78
2022/03/31 06:00:09;;;;;;;14.40;8.93;;;9.20;99.90;;;;;;7397681;19;20138;-81
2022/03/31 06:02:35;;;;;;;11.43;8.87;;;9.20;99.90;;;;;;7391631;19;20142;-78
2022/03/31 06:05:01;;;;;;;12.53;8.53;;;9.20;99.90;;;;;;7395662;19;20206;-80
2022/03/31 06:07:27;;;;;;;12.70;8.57;;;9.30;99.90;;;;;;7394665;19;20138;-79
2022/03/31 06:09:54;;;;;;;11.70;8.73;;;9.30;99.90;;;;;;7390439;19;20169;-79
2022/03/31 06:12:19;;;;;;;11.57;8.57;;;9.30;99.90;;;;;;7392684;19;20139;-79
2022/03/31 06:14:45;;;;;;;11.27;8.27;;;9.30;99.90;;;;;;7390549;19;20205;-80
2022/03/31 06:17:12;;;;;;;12.87;9.10;;;9.30;99.90;;;;;;7391847;19;20162;-79
2022/03/31 06:19:38;;;;;;;11.63;8.80;;;9.30;99.90;;;;;;7406537;19;20211;-79
2022/03/31 06:22:04;;;;;;;13.03;8.87;;;9.20;99.90;;;;;;7401305;19;20142;-77
2022/03/31 06:24:31;;;;;;;11.27;8.73;;;9.20;99.90;;;;;;7391539;19;20157;-78
2022/03/31 06:26:57;;;;;;;14.00;9.30;;;9.20;99.90;;;;;;7391249;19;20150;-79
2022/03/31 06:29:27;;;;;;;11.93;8.33;;;9.00;99.90;;;;;;7389011;19;20186;-79
2022/03/31 06:31:55;;;;;;;12.03;9.00;;;9.10;99.90;;;;;;7388132;19;20138;-77
2022/03/31 06:34:21;;;;;;;11.87;9.07;;;9.20;99.90;;;;;;7391626;19;20150;-79
2022/03/31 06:36:48;;;;;;;13.43;8.47;;;9.20;99.90;;;;;;7389949;19;20466;-80
2022/03/31 06:39:13;;;;;;;12.43;8.57;;;9.10;99.90;;;;;;7400086;19;20135;-78
2022/03/31 06:41:40;;;;;;;12.87;9.20;;;9.00;99.90;;;;;;7389322;19;20152;-80
2022/03/31 06:44:08;;;;;;;12.87;9.50;;;9.00;99.90;;;;;;7389947;19;20138;-79
2022/03/31 06:46:35;;;;;;;13.57;9.67;;;9.10;99.90;;;;;;7388407;19;20154;-80
2022/03/31 06:49:02;;;;;;;11.77;8.83;;;9.20;99.90;;;;;;7390104;19;20146;-78
2022/03/31 06:51:28;;;;;;;12.97;8.83;;;9.30;99.90;;;;;;7394499;19;20147;-77
2022/03/31 06:53:57;;;;;;;11.47;8.37;;;9.30;99.90;;;;;;7394220;19;20138;-79
2022/03/31 06:56:37;;;;;;;12.33;8.13;;;9.30;99.90;;;;;;7391685;19;20147;-81
2022/03/31 06:59:03;;;;;;;12.30;8.70;;;9.50;99.90;;;;;;7392257;19;20134;-80
2022/03/31 07:01:29;;;;;;;12.33;8.40;;;9.50;99.90;;;;;;7394470;19;20149;-78
2022/03/31 07:03:55;;;;;;;14.17;9.00;;;9.60;99.90;;;;;;7390720;19;20148;-78
2022/03/31 07:06:22;;;;;;;14.37;8.50;;;9.60;99.90;;;;;;7391816;19;20155;-80
2022/03/31 07:08:48;;;;;;;12.90;8.77;;;9.60;99.90;;;;;;7394670;19;20712;-79
2022/03/31 07:11:14;;;;;;;13.27;8.93;;;9.60;99.90;;;;;;7388685;19;20190;-80
2022/03/31 07:13:40;;;;;;;12.63;8.57;;;9.60;99.90;;;;;;7389734;19;20127;-79
2022/03/31 07:16:06;;;;;;;13.50;9.43;;;9.20;99.90;;;;;;7388060;19;20677;-77
2022/03/31 07:18:32;;;;;;;13.00;9.17;;;9.40;99.90;;;;;;7388887;19;20150;-79
2022/03/31 07:20:58;;;;;;;13.63;8.87;;;9.50;99.90;;;;;;7388160;19;20135;-78
2022/03/31 07:23:25;;;;;;;11.93;8.70;;;9.60;99.90;;;;;;7392774;19;20146;-80
2022/03/31 07:25:56;;;;;;;12.63;8.93;;;9.70;99.90;;;;;;7397199;19;20135;-81
2022/03/31 07:28:25;;;;;;;12.80;9.13;;;9.70;99.90;;;;;;7388043;19;20145;-78
2022/03/31 07:30:52;;;;;;;13.97;8.57;;;9.70;99.90;;;;;;7388748;19;20162;-80
2022/03/31 07:33:21;;;;;;;11.93;9.10;;;9.70;99.90;;;;;;7388576;19;20486;-78
2022/03/31 07:35:50;;;;;;;11.37;8.60;;;9.70;99.90;;;;;;7390894;19;20543;-78
2022/03/31 07:38:16;;;;;;;13.07;8.77;;;9.80;99.90;;;;;;7389257;19;20154;-79
2022/03/31 07:40:43;;;;;;;14.00;8.93;;;9.80;99.90;;;;;;7388209;19;20134;-80
2022/03/31 07:43:08;;;;;;;14.03;9.53;;;9.90;99.90;;;;;;7387445;19;20145;-79
2022/03/31 07:45:35;;;;;;;14.13;9.63;;;9.70;99.90;;;;;;7394418;19;20548;-79
2022/03/31 07:48:02;;;;;;;13.07;8.93;;;9.80;99.90;;;;;;7395961;19;20149;-79
2022/03/31 07:50:33;;;;;;;13.23;9.30;;;9.70;99.90;;;;;;7389684;19;20198;-82
2022/03/31 07:52:59;;;;;;;12.83;8.60;;;9.70;99.90;;;;;;7388561;19;20161;-79
2022/03/31 07:55:27;;;;;;;14.80;9.30;;;9.70;99.90;;;;;;7389268;19;20221;-79
2022/03/31 07:57:56;;;;;;;15.17;9.47;;;9.80;99.90;;;;;;7387668;19;20142;-80
2022/03/31 08:00:25;;;;;;;16.23;10.67;;;9.80;99.90;;;;;;7390397;19;20130;-83
2022/03/31 08:02:52;;;;;;;12.90;9.10;;;9.80;99.90;;;;;;7389383;19;20131;-79
2022/03/31 08:05:22;;;;;;;13.20;9.07;;;9.80;99.90;;;;;;7407575;19;20206;-80
2022/03/31 08:07:51;;;;;;;13.07;9.53;;;9.90;99.90;;;;;;7392081;19;20130;-78
2022/03/31 08:10:19;;;;;;;14.30;10.43;;;9.80;99.90;;;;;;7387472;19;20142;-78
2022/03/31 08:12:45;;;;;;;13.40;9.40;;;9.90;99.90;;;;;;7389485;19;20123;-81
2022/03/31 08:15:15;;;;;;;15.10;9.07;;;10.00;99.90;;;;;;7387262;19;20143;-79
2022/03/31 08:17:42;;;;;;;15.37;10.00;;;9.60;99.90;;;;;;7387643;19;20134;-80
2022/03/31 08:20:13;;;;;;;12.90;9.57;;;9.40;99.90;;;;;;7387020;19;20150;-80
2022/03/31 08:22:39;;;;;;;15.00;9.70;;;9.70;99.90;;;;;;7389766;19;20497;-81
2022/03/31 08:25:09;;;;;;;14.90;10.57;;;9.90;99.90;;;;;;7387928;19;20602;-80
2022/03/31 08:27:38;;;;;;;13.50;9.77;;;10.10;99.90;;;;;;7392087;19;20137;-80
2022/03/31 08:30:10;;;;;;;13.17;9.30;;;10.10;99.90;;;;;;7391384;19;20142;-79
2022/03/31 08:32:39;;;;;;;13.57;9.77;;;10.00;99.90;;;;;;7388214;19;20168;-79
2022/03/31 08:35:07;;;;;;;14.73;10.17;;;9.90;99.90;;;;;;7390548;19;20462;-81
2022/03/31 08:37:34;;;;;;;14.07;10.43;;;9.90;99.90;;;;;;7386337;19;20154;-78
2022/03/31 08:39:59;;;;;;;16.37;10.90;;;9.80;99.90;;;;;;7386806;19;20145;-81
2022/03/31 08:42:26;;;;;;;13.70;9.80;;;9.80;99.90;;;;;;7388764;19;20151;-82
2022/03/31 08:44:55;;;;;;;16.27;10.50;;;9.80;99.90;;;;;;7389102;19;20138;-79
2022/03/31 08:47:20;;;;;;;17.40;9.80;;;9.90;99.90;;;;;;7385849;19;20235;-79
2022/03/31 08:49:47;;;;;;;14.97;10.17;;;9.90;99.90;;;;;;7388639;19;20553;-81
2022/03/31 08:52:13;;;;;;;15.80;10.90;;;10.00;99.90;;;;;;7395455;19;20127;-81
2022/03/31 08:54:42;;;;;;;13.43;10.10;;;10.10;99.90;;;;;;7386448;19;20151;-81
2022/03/31 08:57:08;;;;;;;16.27;10.47;;;10.10;99.90;;;;;;7385221;19;20139;-81
2022/03/31 08:59:34;;;;;;;15.33;10.57;;;10.20;99.90;;;;;;7387844;19;20261;-81
2022/03/31 09:02:00;;;;;;;13.57;10.20;;;10.20;99.90;;;;;;7386952;19;20992;-80
2022/03/31 09:04:26;;;;;;;14.13;10.23;;;10.10;99.90;;;;;;7385702;19;20613;-81
2022/03/31 09:07:06;;;;;;;14.87;10.60;;;10.20;99.90;;;;;;7388227;19;20135;-80
2022/03/31 09:09:43;;;;;;;16.17;11.00;;;10.20;99.90;;;;;;7390951;19;20135;-80
2022/03/31 09:12:09;;;;;;;16.13;10.33;;;10.30;99.90;;;;;;7387362;19;20130;-80
2022/03/31 09:14:35;;;;;;;14.83;10.37;;;10.50;99.90;;;;;;7385031;19;20721;-79
2022/03/31 09:17:14;;;;;;;15.77;10.77;;;10.60;99.90;;;;;;7385424;19;20162;-79
2022/03/31 09:19:43;;;;;;;19.20;9.87;;;10.70;99.90;;;;;;7386836;19;20224;-80
2022/03/31 09:22:09;;;;;;;15.93;10.60;;;10.70;99.90;;;;;;7385866;19;20177;-81
2022/03/31 09:24:35;;;;;;;14.87;10.40;;;10.80;99.90;;;;;;7386036;19;20168;-80
2022/03/31 09:27:03;;;;;;;15.83;10.13;;;10.80;99.90;;;;;;7387499;19;20154;-83
2022/03/31 09:29:31;;;;;;;15.13;10.27;;;10.80;99.90;;;;;;7386926;19;20147;-78
2022/03/31 09:32:15;;;;;;;15.43;10.40;;;10.70;99.90;;;;;;7408927;19;20143;-79
2022/03/31 09:34:48;;;;;;;16.17;10.43;;;10.60;99.90;;;;;;7387816;19;20127;-80
2022/03/31 09:37:15;;;;;;;19.30;11.53;;;10.60;99.90;;;;;;7383069;19;20147;-82
2022/03/31 09:39:42;;;;;;;17.53;10.47;;;10.60;99.90;;;;;;7386743;19;20182;-80
2022/03/31 09:42:17;;;;;;;20.57;12.10;;;10.60;99.90;;;;;;7384616;19;20224;-78
2022/03/31 09:44:43;;;;;;;15.53;10.70;;;10.50;99.90;;;;;;7386359;19;20127;-81
2022/03/31 09:47:10;;;;;;;16.50;10.63;;;10.70;99.90;;;;;;7386256;19;20129;-80
2022/03/31 09:49:36;;;;;;;16.77;10.60;;;11.00;99.90;;;;;;7387861;19;20146;-80
2022/03/31 09:52:07;;;;;;;14.80;10.03;;;11.20;99.90;;;;;;7386984;19;20206;-78
2022/03/31 09:54:34;;;;;;;16.03;11.03;;;11.30;99.90;;;;;;7387821;19;20178;-78
2022/03/31 09:57:02;;;;;;;18.43;10.40;;;11.30;99.90;;;;;;7388029;19;20162;-80
2022/03/31 09:59:38;;;;;;;16.33;10.30;;;11.40;99.90;;;;;;7387594;19;20150;-78
2022/03/31 10:02:04;;;;;;;17.07;11.53;;;11.50;99.90;;;;;;7383394;19;20126;-80
2022/03/31 10:04:31;;;;;;;17.00;11.10;;;11.30;99.90;;;;;;7384326;19;20142;-80
2022/03/31 10:06:58;;;;;;;16.70;11.17;;;11.20;99.90;;;;;;7386251;19;20159;-80
2022/03/31 10:09:24;;;;;;;15.67;11.10;;;11.20;99.90;;;;;;7392278;19;20697;-78
2022/03/31 10:12:14;;;;;;;17.30;10.63;;;11.40;99.90;;;;;;7390376;19;20130;-80
2022/03/31 10:15:00;;;;;;;15.00;10.37;;;11.50;99.90;;;;;;7393570;19;20141;-80
2022/03/31 10:17:28;;;;;;;20.03;11.40;;;11.60;99.90;;;;;;7400327;19;20186;-79
2022/03/31 10:20:05;;;;;;;16.23;10.90;;;11.70;99.90;;;;;;7397139;19;20130;-79
2022/03/31 10:25:15;;;;;;;15.23;10.40;;;11.80;99.90;;;;;;7396554;19;20618;-81
2022/03/31 10:27:47;;;;;;;17.07;10.80;;;11.60;99.90;;;;;;7390227;19;20173;-78
2022/03/31 10:30:18;;;;;;;15.73;10.47;;;11.50;99.90;;;;;;7390974;19;20196;-79
2022/03/31 10:32:53;;;;;;;17.03;10.53;;;11.40;99.90;;;;;;7391175;19;20530;-79
2022/03/31 10:35:25;;;;;;;15.87;11.07;;;11.40;99.90;;;;;;7391047;19;20142;-78
2022/03/31 10:37:51;;;;;;;15.73;10.60;;;11.50;99.90;;;;;;7391459;19;20158;-79
2022/03/31 10:40:35;;;;;;;15.77;11.23;;;11.50;99.90;;;;;;7392759;19;20138;-81
2022/03/31 10:43:02;;;;;;;17.23;10.03;;;11.60;99.90;;;;;;7414214;19;20145;-79
2022/03/31 10:45:42;;;;;;;16.03;11.10;;;11.60;99.90;;;;;;7400559;19;20492;-80
2022/03/31 10:48:22;;;;;;;17.50;11.90;;;11.70;99.90;;;;;;7392624;19;20138;-79
2022/03/31 10:51:01;;;;;;;15.97;11.20;;;11.60;99.90;;;;;;7392386;19;20146;-81
2022/03/31 10:53:28;;;;;;;14.57;10.80;;;11.60;99.90;;;;;;7392314;19;20198;-79
2022/03/31 10:55:55;;;;;;;17.13;11.30;;;11.80;99.90;;;;;;7390877;19;20163;-79
2022/03/31 10:58:27;;;;;;;14.47;10.87;;;11.90;99.90;;;;;;7392224;19;20142;-79
2022/03/31 11:00:55;;;;;;;16.23;11.30;;;11.90;99.90;;;;;;7390545;19;20170;-79
2022/03/31 11:03:22;;;;;;;16.30;11.17;;;11.80;99.90;;;;;;7398296;19;20142;-79
2022/03/31 11:05:48;;;;;;;15.07;10.57;;;11.80;99.90;;;;;;7391775;19;20146;-78
2022/03/31 11:08:18;;;;;;;15.90;11.50;;;11.90;99.90;;;;;;7400197;19;20604;-79
2022/03/31 11:10:51;;;;;;;16.33;11.17;;;12.00;99.90;;;;;;7390267;19;20135;-79
2022/03/31 11:13:20;;;;;;;18.00;11.90;;;12.10;99.90;;;;;;7390475;19;20127;-81
2022/03/31 11:15:54;;;;;;;18.20;12.10;;;12.10;99.90;;;;;;7389444;19;20530;-78
2022/03/31 11:18:21;;;;;;;20.50;14.30;;;12.20;99.90;;;;;;7391045;19;20134;-80
2022/03/31 11:20:58;;;;;;;15.00;11.23;;;12.30;99.90;;;;;;7390397;19;20545;-80
2022/03/31 11:23:25;;;;;;;18.00;11.90;;;12.10;99.90;;;;;;7391147;19;20150;-81
2022/03/31 11:25:53;;;;;;;18.47;11.70;;;12.00;99.90;;;;;;7399943;19;20158;-79
2022/03/31 11:28:20;;;;;;;18.67;11.83;;;12.00;99.90;;;;;;7393004;19;20139;-80
2022/03/31 11:30:48;;;;;;;16.50;11.60;;;11.90;99.90;;;;;;7391410;19;20149;-79
2022/03/31 11:33:14;;;;;;;19.80;12.10;;;12.00;99.90;;;;;;7388820;19;20135;-81
2022/03/31 11:35:42;;;;;;;17.53;11.67;;;12.00;99.90;;;;;;7387964;19;20134;-81
2022/03/31 11:38:17;;;;;;;21.87;11.87;;;11.80;99.90;;;;;;7390722;19;20163;-83
2022/03/31 11:40:48;;;;;;;18.17;11.57;;;12.00;99.90;;;;;;7387846;19;20506;-79
2022/03/31 11:43:18;;;;;;;19.53;12.20;;;12.10;99.90;;;;;;7389671;19;20131;-81
2022/03/31 11:45:48;;;;;;;16.03;11.40;;;11.90;99.90;;;;;;7394267;19;20142;-77
2022/03/31 11:48:35;;;;;;;16.73;10.77;;;12.00;99.90;;;;;;7390570;19;20565;-82
2022/03/31 11:51:06;;;;;;;14.83;10.87;;;12.00;99.90;;;;;;7390103;19;20218;-78
2022/03/31 11:53:34;;;;;;;16.10;10.73;;;11.90;99.90;;;;;;7391023;19;20162;-81
2022/03/31 11:56:12;;;;;;;15.37;11.67;;;11.90;99.90;;;;;;7396979;19;20122;-80
2022/03/31 11:58:48;;;;;;;16.93;11.07;;;11.90;99.90;;;;;;7388974;19;20135;-78
2022/03/31 12:01:20;;;;;;;15.13;10.67;;;11.90;99.90;;;;;;7388007;19;20186;-77
2022/03/31 12:03:46;;;;;;;18.50;11.83;;;12.00;99.90;;;;;;7389684;19;20194;-79
2022/03/31 12:06:16;;;;;;;17.90;11.60;;;12.10;99.90;;;;;;7387072;19;20146;-82
2022/03/31 12:08:43;;;;;;;17.90;11.50;;;12.20;99.90;;;;;;7391924;19;20170;-82
2022/03/31 12:11:10;;;;;;;19.93;11.23;;;12.00;99.90;;;;;;7393982;19;20162;-81
2022/03/31 12:13:48;;;;;;;18.43;11.73;;;11.90;99.90;;;;;;7388262;19;20139;-82
2022/03/31 12:16:14;;;;;;;17.57;12.20;;;11.90;99.90;;;;;;7391663;19;20222;-82
2022/03/31 12:18:42;;;;;;;20.77;11.83;;;12.00;99.90;;;;;;7397632;19;20511;-78
2022/03/31 12:21:08;;;;;;;15.63;10.80;;;12.00;99.90;;;;;;7386974;19;21069;-79
2022/03/31 12:23:44;;;;;;;16.43;11.23;;;12.00;99.90;;;;;;7389255;19;20131;-82
2022/03/31 12:26:18;;;;;;;16.63;11.80;;;12.00;99.90;;;;;;7403494;19;20449;-78
2022/03/31 12:28:45;;;;;;;19.33;11.37;;;11.90;99.90;;;;;;7386763;19;20139;-82
2022/03/31 12:31:22;;;;;;;21.70;14.83;;;11.90;99.90;;;;;;7389655;19;20146;-84
2022/03/31 12:33:51;;;;;;;14.33;10.43;;;12.00;99.90;;;;;;7388969;19;20484;-78
2022/03/31 12:36:23;;;;;;;16.67;10.67;;;12.00;99.90;;;;;;7386720;19;20126;-82
2022/03/31 12:38:51;;;;;;;13.57;9.50;;;12.10;99.90;;;;;;7403269;19;20139;-79
2022/03/31 12:41:34;;;;;;;15.40;10.23;;;12.00;99.90;;;;;;7389152;19;20131;-82
2022/03/31 12:44:08;;;;;;;14.47;10.47;;;11.90;99.90;;;;;;7388343;19;20150;-82
2022/03/31 12:46:39;;;;;;;17.00;11.47;;;11.90;99.90;;;;;;7387778;19;20526;-83
2022/03/31 12:49:11;;;;;;;19.77;11.20;;;11.90;99.90;;;;;;7386255;19;20122;-81